KAUG/AUG METAR and TAF weather

Enter ICAO airport designator
Station Type Date Time Source
KAUG METAR 2022/12/04 11:53 UTC NOAA

KAUG 041153Z AUTO 30012G20KT 10SM OVC048 01/M08 A3006 RMK AO2 SLP181 70038 T00111083 10061 20011 53038


Station Type Date Time Source
KAUG Decoded METAR 2022/12/04 11:53 UTC NOAA

AUGUSTA STATE AIRPORT, ME, United States (KAUG) 44-19N 069-48W 109M
Dec 04, 2022 - 06:53 AM EST / 2022.12.04 1153 UTC
Wind: from the WNW (300 degrees) at 14 MPH (12 KT) gusting to 23 MPH (20 KT):0
Visibility: 10 mile(s):0
Sky conditions: overcast
Temperature: 34.0 F (1.1 C)
Windchill: 24 F (-4 C):1
Dew Point: 17.1 F (-8.3 C)
Relative Humidity: 49%
Pressure (altimeter): 30.06 in. Hg (1017 hPa)
Pressure tendency: 0.11 inches (3.8 hPa) higher than three hours ago
ob: KAUG 041153Z AUTO 30012G20KT 10SM OVC048 01/M08 A3006 RMK AO2 SLP181 70038 T00111083 10061 20011 53038
cycle: 12

Station Type Date Time Source
KAUG TAF 2022/12/04 12:22 UTC NOAA

TAF KAUG 041120Z 0412/0512 30010G18KT P6SM SCT050
FM042200 VRB03KT P6SM SKC

Example: see airport list